createdAt,value
2023-04-03T11:20:11.241Z,53.5696
2023-04-03T11:21:12.022Z,53.4623
2023-04-03T11:22:12.864Z,54.1911
2023-04-03T11:23:13.637Z,54.7815
2023-04-03T11:24:14.394Z,54.9592
2023-04-03T11:25:15.206Z,55.0725
2023-04-03T11:26:16.007Z,55.1915
2023-04-03T11:27:17.826Z,55.3396
2023-04-03T11:28:18.593Z,55.4633
2023-04-03T11:29:32.174Z,55.5589
2023-04-03T11:30:20.812Z,55.6521
2023-04-03T11:31:21.642Z,55.7323
2023-04-03T11:32:22.427Z,55.8082
2023-04-03T11:33:23.196Z,55.8517
2023-04-03T11:34:23.922Z,55.8791
2023-04-03T11:35:24.808Z,55.8900
2023-04-03T11:36:26.287Z,55.8988
2023-04-03T11:37:27.281Z,55.8910
2023-04-03T11:38:28.064Z,55.8443
2023-04-03T11:39:28.796Z,55.5029
2023-04-03T11:40:29.577Z,55.2431
2023-04-03T11:41:30.354Z,54.7269
2023-04-03T11:42:31.185Z,54.3715
2023-04-03T11:43:31.910Z,54.1422
2023-04-03T11:44:32.718Z,54.1377
2023-04-03T11:45:33.464Z,54.2404
2023-04-03T11:46:34.241Z,54.3827
2023-04-03T11:47:35.081Z,54.5300
2023-04-03T11:48:36.106Z,54.7220
2023-04-03T11:49:36.841Z,54.8208
2023-04-03T11:50:37.680Z,54.8874
2023-04-03T11:51:38.445Z,54.9558
2023-04-03T11:52:40.964Z,54.9733
2023-04-03T11:53:41.032Z,54.9899
2023-04-03T11:54:44.813Z,54.9964
2023-04-03T11:55:42.000Z,55.0188
2023-04-03T11:56:42.773Z,55.0103
2023-04-03T11:57:43.575Z,54.8508
2023-04-03T11:58:44.341Z,54.7744
2023-04-03T11:59:45.096Z,54.8618
2023-04-03T12:00:45.903Z,54.9859
2023-04-03T12:01:46.736Z,55.1180
2023-04-03T12:02:54.395Z,55.2363
2023-04-03T12:03:49.081Z,55.3051
2023-04-03T12:04:50.110Z,55.3212
2023-04-03T12:05:50.951Z,55.3761
2023-04-03T12:06:51.671Z,55.4723
2023-04-03T12:07:52.447Z,55.5688
2023-04-03T12:08:53.214Z,55.6456
2023-04-03T12:09:53.999Z,55.7255
2023-04-03T12:10:55.118Z,55.7838
2023-04-03T12:11:55.864Z,55.8304
2023-04-03T12:12:56.619Z,55.8805
2023-04-03T12:13:57.386Z,55.9095
2023-04-03T12:14:58.109Z,55.8957
2023-04-03T12:15:58.862Z,55.8652
2023-04-03T12:16:59.625Z,55.8470
2023-04-03T12:18:00.466Z,55.8160
2023-04-03T12:19:01.287Z,55.7471
2023-04-03T12:20:02.097Z,55.6864
2023-04-03T12:21:02.938Z,55.6552
2023-04-03T12:22:03.620Z,55.6099
2023-04-03T12:23:05.721Z,55.4738
2023-04-03T12:24:05.651Z,55.4329
2023-04-03T12:25:06.469Z,55.4269
2023-04-03T12:26:07.228Z,55.3633
2023-04-03T12:27:07.981Z,55.2887
2023-04-03T12:28:08.747Z,55.2926
2023-04-03T12:29:09.521Z,55.3059
2023-04-03T12:30:10.357Z,55.3174
2023-04-03T12:31:11.234Z,55.3435
2023-04-03T12:32:11.976Z,55.3637
2023-04-03T12:33:13.857Z,55.3242
2023-04-03T12:34:12.916Z,55.3170
2023-04-03T12:35:13.710Z,55.2890
2023-04-03T12:36:14.602Z,55.1695
2023-04-03T12:37:15.440Z,55.0918
2023-04-03T12:38:16.202Z,55.0692
2023-04-03T12:39:16.943Z,55.0589
2023-04-03T12:40:17.821Z,54.9966
2023-04-03T12:41:18.586Z,54.8941
2023-04-03T12:42:19.322Z,54.8355
2023-04-03T12:43:20.040Z,54.7463
2023-04-03T12:44:20.830Z,54.6150
2023-04-03T12:45:21.553Z,54.4338
2023-04-03T12:46:22.396Z,54.3877
2023-04-03T12:47:23.460Z,54.4072
2023-04-03T12:48:24.155Z,54.4177
2023-04-03T12:49:24.932Z,54.3642
2023-04-03T12:50:25.652Z,54.3044
2023-04-03T12:51:26.493Z,54.1274
2023-04-03T12:52:27.284Z,53.7784
2023-04-03T12:53:28.059Z,53.4752
2023-04-03T12:54:28.797Z,53.0826
2023-04-03T12:55:29.614Z,53.0384
2023-04-03T12:56:32.036Z,53.1137
2023-04-03T12:57:32.220Z,53.1723
2023-04-03T12:58:32.957Z,53.2282
2023-04-03T12:59:33.700Z,53.2709
2023-04-03T13:00:34.518Z,53.2881
2023-04-03T13:01:35.337Z,53.3275
2023-04-03T13:02:36.201Z,53.3626
2023-04-03T13:03:37.094Z,53.3507
2023-04-03T13:04:37.974Z,53.3499
2023-04-03T13:05:38.997Z,53.3626
2023-04-03T13:06:40.839Z,53.1750
2023-04-03T13:07:41.505Z,52.9270
2023-04-03T13:08:42.674Z,52.8524
2023-04-03T13:09:43.427Z,52.8116
2023-04-03T13:10:44.166Z,52.8082
2023-04-03T13:11:44.908Z,52.7010
2023-04-03T13:12:45.599Z,52.5434
2023-04-03T13:13:46.294Z,52.4565
2023-04-03T13:14:47.008Z,52.2946
2023-04-03T13:15:47.787Z,52.1998
2023-04-03T13:16:48.495Z,52.1224
2023-04-03T13:17:49.302Z,52.0221
2023-04-03T13:18:50.051Z,51.9131
2023-04-03T13:19:50.776Z,51.7852
2023-04-03T13:20:51.483Z,51.6683
2023-04-03T13:21:52.359Z,51.5794
2023-04-03T13:22:53.121Z,51.4314
2023-04-03T13:24:03.611Z,51.1976
2023-04-03T13:24:55.343Z,51.1425
2023-04-03T13:25:56.066Z,51.1582
2023-04-03T13:26:56.817Z,51.2036
2023-04-03T13:28:10.116Z,51.2521
2023-04-03T13:28:58.930Z,51.1734
2023-04-03T13:29:59.640Z,51.0987
2023-04-03T13:31:00.397Z,51.0944
2023-04-03T13:32:01.302Z,51.1207
2023-04-03T13:33:02.094Z,51.1098
2023-04-03T13:34:02.847Z,51.1607
2023-04-03T13:35:15.456Z,51.2003
2023-04-03T13:36:05.005Z,51.2447
2023-04-03T13:37:05.921Z,51.1692
2023-04-03T13:38:06.686Z,51.1612
2023-04-03T13:39:07.454Z,51.1772
2023-04-03T13:40:08.303Z,51.1718
2023-04-03T13:41:09.067Z,51.1515
2023-04-03T13:42:09.905Z,51.2159
2023-04-03T13:43:10.661Z,51.2578
2023-04-03T13:44:12.667Z,51.2460
2023-04-03T13:45:11.426Z,51.3592
2023-04-03T13:46:12.273Z,51.5021
2023-04-03T13:47:13.278Z,51.6563
2023-04-03T13:49:14.200Z,51.8574
2023-04-03T13:50:14.976Z,51.8839
2023-04-03T13:51:15.835Z,51.9371
2023-04-03T13:52:16.598Z,52.0338
2023-04-03T13:53:17.515Z,52.1340
2023-04-03T13:54:18.337Z,52.2269
2023-04-03T13:55:24.764Z,52.2840
2023-04-03T13:56:20.972Z,52.3419
2023-04-03T13:57:21.808Z,52.3944
2023-04-03T13:58:22.645Z,52.4295
2023-04-03T13:59:23.397Z,52.4209
2023-04-03T14:00:24.194Z,52.4285
2023-04-03T14:01:25.033Z,52.4278
2023-04-03T14:02:25.941Z,52.4041
2023-04-03T14:03:26.675Z,52.4189
2023-04-03T14:04:27.483Z,52.4365
2023-04-03T14:05:28.267Z,52.4556
2023-04-03T14:06:29.023Z,52.4920
2023-04-03T14:07:29.785Z,52.5162
2023-04-03T14:08:42.394Z,52.5347
2023-04-03T14:09:31.940Z,52.5539
2023-04-03T14:10:32.641Z,52.5424
2023-04-03T14:11:35.973Z,52.5182
2023-04-03T14:12:34.562Z,52.5217
2023-04-03T14:13:35.374Z,52.5455
2023-04-03T14:14:36.115Z,52.5071
2023-04-03T14:15:37.181Z,52.3541
2023-04-03T14:16:38.381Z,52.2783
2023-04-03T14:17:39.261Z,52.2839
2023-04-03T14:18:40.032Z,52.3285
2023-04-03T14:19:40.802Z,52.3656
2023-04-03T14:20:41.592Z,52.4050
2023-04-03T14:21:42.352Z,52.3945
2023-04-03T14:22:43.136Z,52.4169
2023-04-03T14:23:43.846Z,52.4558
2023-04-03T14:24:44.586Z,52.4069
2023-04-03T14:25:45.340Z,52.3627
2023-04-03T14:26:46.074Z,52.3521
2023-04-03T14:27:46.833Z,52.2509
2023-04-03T14:28:47.643Z,52.2186
2023-04-03T14:29:48.397Z,52.2174
2023-04-03T14:30:49.136Z,52.2224
2023-04-03T14:31:53.439Z,52.1949
2023-04-03T14:32:51.400Z,52.1474
2023-04-03T14:33:52.467Z,52.1715
2023-04-03T14:34:53.284Z,52.0258
2023-04-03T14:35:56.441Z,51.8790
2023-04-03T14:36:54.327Z,51.9197
2023-04-03T14:37:55.111Z,52.0098
2023-04-03T14:38:55.893Z,52.1141
2023-04-03T14:39:56.672Z,52.1101
2023-04-03T14:41:06.303Z,52.0939
2023-04-03T14:41:58.956Z,51.9897
2023-04-03T14:42:59.740Z,51.9661
2023-04-03T14:44:00.535Z,51.9810
2023-04-03T14:45:01.293Z,52.0500
2023-04-03T14:46:02.092Z,52.1205
2023-04-03T14:47:02.908Z,52.2012
2023-04-03T14:48:03.926Z,52.2730
2023-04-03T14:49:04.636Z,52.1624
2023-04-03T14:50:05.464Z,52.0511
2023-04-03T14:51:06.597Z,52.0124
2023-04-03T14:52:07.353Z,51.9749
2023-04-03T14:53:08.160Z,52.0305
2023-04-03T14:54:08.893Z,52.1266
2023-04-03T14:55:09.713Z,52.1955
2023-04-03T14:56:10.503Z,52.1684
2023-04-03T14:57:11.302Z,52.1781
2023-04-03T14:58:12.065Z,52.2306
2023-04-03T14:59:12.828Z,52.2520
2023-04-03T15:00:13.618Z,52.2835
2023-04-03T15:01:14.387Z,52.3233
2023-04-03T15:02:15.190Z,52.3142
2023-04-03T15:03:16.098Z,52.1732
2023-04-03T15:04:17.714Z,52.0878
2023-04-03T15:05:18.903Z,52.0880
2023-04-03T15:06:19.743Z,52.1038
2023-04-03T15:07:20.539Z,52.0264
2023-04-03T15:08:21.334Z,51.9818
2023-04-03T15:09:22.142Z,52.0006
2023-04-03T15:10:22.918Z,52.1049
2023-04-03T15:11:23.753Z,52.1588
2023-04-03T15:12:24.535Z,52.1592
2023-04-03T15:13:25.329Z,52.1356
2023-04-03T15:14:36.058Z,52.0414
2023-04-03T15:15:27.544Z,52.0221
2023-04-03T15:16:28.376Z,51.9902
2023-04-03T15:17:29.159Z,51.9379
2023-04-03T15:18:31.067Z,51.9156
2023-04-03T15:19:31.975Z,51.9739
2023-04-03T15:20:32.769Z,52.0430
2023-04-03T15:21:33.551Z,52.0963
2023-04-03T15:22:34.391Z,52.1016
2023-04-03T15:23:35.150Z,52.1158
2023-04-03T15:24:35.910Z,52.2060
2023-04-03T15:25:36.707Z,52.2533
2023-04-03T15:26:37.485Z,52.2899
2023-04-03T15:27:38.313Z,52.3413
2023-04-03T15:28:39.197Z,52.4388
2023-04-03T15:29:40.005Z,52.4996
2023-04-03T15:30:40.924Z,52.4794
2023-04-03T15:31:42.207Z,52.4726
2023-04-03T15:32:43.223Z,52.4900
2023-04-03T15:33:44.010Z,52.4979
2023-04-03T15:34:44.755Z,52.5092
2023-04-03T15:35:45.558Z,52.5081
2023-04-03T15:36:46.396Z,52.5325
2023-04-03T15:37:47.147Z,52.5637
2023-04-03T15:38:47.969Z,52.5784
2023-04-03T15:39:48.774Z,52.6007
2023-04-03T15:40:49.551Z,52.6395
2023-04-03T15:41:50.336Z,52.5791
2023-04-03T15:42:53.157Z,52.5394
2023-04-03T15:43:53.260Z,52.5467
2023-04-03T15:44:54.084Z,52.5702
2023-04-03T15:45:54.946Z,52.5904
2023-04-03T15:46:55.772Z,52.6119
2023-04-03T15:47:56.570Z,52.6273
2023-04-03T15:48:57.406Z,52.5675
2023-04-03T15:49:58.198Z,52.4118
2023-04-03T15:50:59.319Z,52.3487
2023-04-03T15:52:00.445Z,52.2817
2023-04-03T15:53:01.254Z,52.2473
2023-04-03T15:54:02.106Z,52.2046
2023-04-03T15:55:02.892Z,52.2257
2023-04-03T15:56:03.619Z,52.2926
2023-04-03T15:57:04.471Z,52.3300
2023-04-03T15:58:05.460Z,52.3389
2023-04-03T15:59:06.268Z,52.3936
2023-04-03T16:00:07.075Z,52.4563
2023-04-03T16:01:07.854Z,52.5124
2023-04-03T16:02:08.654Z,52.5775
2023-04-03T16:03:09.540Z,52.6439
2023-04-03T16:04:10.510Z,52.6868
2023-04-03T16:05:11.251Z,52.7003
2023-04-03T16:06:12.130Z,52.7422
2023-04-03T16:07:12.913Z,52.8051
2023-04-03T16:08:13.723Z,52.8598
2023-04-03T16:09:14.534Z,52.8871
2023-04-03T16:10:15.333Z,52.9192
2023-04-03T16:11:16.165Z,52.8927
2023-04-03T16:12:17.018Z,52.8863
2023-04-03T16:13:17.830Z,52.9257
2023-04-03T16:14:18.635Z,52.9884
2023-04-03T16:15:19.425Z,53.0780
2023-04-03T16:16:20.289Z,53.0927
2023-04-03T16:17:21.182Z,53.1132
2023-04-03T16:18:21.964Z,53.1808
2023-04-03T16:19:23.494Z,53.2741
2023-04-03T16:20:24.949Z,53.3738
2023-04-03T16:21:25.758Z,53.4704
2023-04-03T16:22:26.594Z,53.3920
2023-04-03T16:23:27.406Z,53.2410
2023-04-03T16:24:28.269Z,53.3182
2023-04-03T16:25:29.044Z,53.3912
2023-04-03T16:26:29.905Z,53.4604
2023-04-03T16:27:30.694Z,53.5309
2023-04-03T16:28:31.496Z,53.6085
2023-04-03T16:29:32.329Z,53.7127
2023-04-03T16:30:33.176Z,53.8161
2023-04-03T16:31:34.000Z,53.8693
2023-04-03T16:32:34.901Z,53.8618
2023-04-03T16:33:35.768Z,53.8250
2023-04-03T16:34:36.568Z,53.7585
2023-04-03T16:35:37.525Z,53.7710
2023-04-03T16:36:38.854Z,53.8132
2023-04-03T16:37:39.654Z,53.8656
2023-04-03T16:38:40.515Z,53.9039
2023-04-03T16:39:41.388Z,53.9088
2023-04-03T16:40:42.154Z,53.8933
2023-04-03T16:41:42.916Z,53.8632
2023-04-03T16:42:43.735Z,53.8460
2023-04-03T16:43:44.549Z,53.8490
2023-04-03T16:44:45.357Z,53.8650
2023-04-03T16:45:46.197Z,53.8916
2023-04-03T16:46:48.311Z,53.9202
2023-04-03T16:47:47.383Z,53.9386
2023-04-03T16:48:48.197Z,53.8871
2023-04-03T16:49:49.071Z,53.8337
2023-04-03T16:50:50.094Z,53.7676
2023-04-03T16:51:50.919Z,53.7727
2023-04-03T16:52:51.728Z,53.7637
2023-04-03T16:53:52.566Z,53.5473
2023-04-03T16:54:53.397Z,53.3176
2023-04-03T16:55:54.180Z,53.3323
2023-04-03T16:56:54.936Z,53.4568
2023-04-03T16:57:55.738Z,53.5279
2023-04-03T16:58:56.537Z,53.5353
2023-04-03T16:59:57.452Z,53.5614
2023-04-03T17:00:58.385Z,53.6077
2023-04-03T17:01:59.325Z,53.6352
2023-04-03T17:03:00.224Z,53.6499
2023-04-03T17:04:01.069Z,53.7006
2023-04-03T17:05:01.911Z,53.7684
2023-04-03T17:06:02.743Z,53.8097
2023-04-03T17:07:03.589Z,53.8171
2023-04-03T17:08:04.362Z,53.8660
2023-04-03T17:09:05.238Z,53.9351
2023-04-03T17:10:06.066Z,53.9700
2023-04-03T17:11:06.917Z,54.0023
2023-04-03T17:12:07.774Z,54.0611
2023-04-03T17:13:08.558Z,54.1433
2023-04-03T17:14:09.499Z,54.1222
2023-04-03T17:15:10.404Z,54.1546
2023-04-03T17:16:11.350Z,54.1855
2023-04-03T17:17:12.118Z,54.1536
2023-04-03T17:18:13.015Z,54.1620
2023-04-03T17:19:13.836Z,54.1609
2023-04-03T17:20:14.631Z,54.1867
2023-04-03T17:21:15.457Z,54.2293
2023-04-03T17:22:16.276Z,54.2746
2023-04-03T17:23:17.056Z,54.3398
2023-04-03T17:24:17.847Z,54.4281
2023-04-03T17:25:18.659Z,54.5085
2023-04-03T17:26:19.461Z,54.5869
2023-04-03T17:27:20.297Z,54.6620
2023-04-03T17:28:21.092Z,54.7249
2023-04-03T17:29:21.945Z,54.7923
2023-04-03T17:30:22.797Z,54.8483
2023-04-03T17:31:23.664Z,54.8973
2023-04-03T17:32:24.643Z,54.9496
2023-04-03T17:33:25.893Z,55.0244
2023-04-03T17:34:26.754Z,55.0913
2023-04-03T17:35:27.648Z,55.1547
2023-04-03T17:36:28.451Z,55.1949
2023-04-03T17:37:29.228Z,55.2242
2023-04-03T17:38:30.015Z,55.2587
2023-04-03T17:39:30.864Z,55.3110
2023-04-03T17:40:31.723Z,55.3537
2023-04-03T17:41:32.525Z,55.3998
2023-04-03T17:42:33.330Z,55.4515
2023-04-03T17:43:34.267Z,55.4848
2023-04-03T17:44:35.107Z,55.4493
2023-04-03T17:45:35.924Z,55.3918
2023-04-03T17:46:36.808Z,55.3751
2023-04-03T17:47:37.734Z,55.4533
2023-04-03T17:48:38.613Z,55.5847
2023-04-03T17:49:39.394Z,55.5525
2023-04-03T17:50:40.168Z,55.4751
2023-04-03T17:51:41.005Z,55.4905
2023-04-03T17:52:41.875Z,55.5479
2023-04-03T17:53:42.651Z,55.5976
2023-04-03T17:54:43.582Z,55.6518
2023-04-03T17:55:44.442Z,55.7142
2023-04-03T17:56:45.248Z,55.7718
2023-04-03T17:57:46.173Z,55.8080
2023-04-03T17:58:47.022Z,55.8361
2023-04-03T17:59:47.909Z,55.8874
2023-04-03T18:00:48.731Z,55.9666
2023-04-03T18:01:49.654Z,56.0846
2023-04-03T18:02:50.499Z,56.2017
2023-04-03T18:03:51.334Z,56.2703
2023-04-03T18:04:52.151Z,56.3651
2023-04-03T18:05:54.993Z,56.5053
2023-04-03T18:06:54.131Z,56.6088
2023-04-03T18:07:55.013Z,56.5972
2023-04-03T18:08:55.871Z,56.6116
2023-04-03T18:09:56.715Z,56.6381
2023-04-03T18:10:57.509Z,56.6402
2023-04-03T18:11:58.295Z,56.6442
2023-04-03T18:12:59.113Z,56.6570
2023-04-03T18:14:00.943Z,56.6886
2023-04-03T18:15:01.037Z,56.7361
2023-04-03T18:16:01.856Z,56.8070
2023-04-03T18:17:02.677Z,56.9285
2023-04-03T18:18:03.498Z,56.9773
2023-04-03T18:19:21.334Z,56.9626
2023-04-03T18:20:05.807Z,56.9517
2023-04-03T18:21:06.570Z,56.9389
2023-04-03T18:22:07.369Z,56.9280
2023-04-03T18:23:08.230Z,56.9300
2023-04-03T18:24:09.076Z,56.9494
2023-04-03T18:25:09.907Z,57.0111
2023-04-03T18:26:10.847Z,57.0867
2023-04-03T18:27:11.639Z,57.1303
2023-04-03T18:28:12.488Z,57.1321
2023-04-03T18:29:13.326Z,57.1268
2023-04-03T18:30:14.137Z,57.1250
2023-04-03T18:31:16.133Z,57.1213
2023-04-03T18:32:17.003Z,57.1313
2023-04-03T18:33:17.853Z,57.1357
2023-04-03T18:34:18.724Z,57.1483
2023-04-03T18:35:19.583Z,57.2132
2023-04-03T18:36:20.410Z,57.3477
2023-04-03T18:37:21.263Z,57.4059
2023-04-03T18:38:22.095Z,57.4212
2023-04-03T18:39:24.780Z,57.4236
2023-04-03T18:40:23.295Z,57.3568
2023-04-03T18:41:24.110Z,57.2837
2023-04-03T18:42:24.968Z,57.2561
2023-04-03T18:43:25.770Z,57.2473
2023-04-03T18:44:26.697Z,57.2514
2023-04-03T18:45:27.552Z,57.2542
2023-04-03T18:46:28.423Z,57.2687
2023-04-03T18:47:29.350Z,57.2777
2023-04-03T18:48:31.259Z,57.2852
2023-04-03T18:49:32.316Z,57.2445
2023-04-03T18:50:33.153Z,57.2327
2023-04-03T18:51:34.021Z,57.2816
2023-04-03T18:52:34.892Z,57.3537
2023-04-03T18:53:35.728Z,57.3318
2023-04-03T18:54:36.595Z,57.2980
2023-04-03T18:55:37.480Z,57.3006
2023-04-03T18:56:38.400Z,57.3214
2023-04-03T18:57:39.234Z,57.3411
2023-04-03T18:58:40.041Z,57.3540
2023-04-03T18:59:40.997Z,57.3473
2023-04-03T19:00:41.846Z,57.3462
2023-04-03T19:01:42.739Z,57.3745
2023-04-03T19:02:43.771Z,57.4261
2023-04-03T19:03:44.712Z,57.4831
2023-04-03T19:04:47.336Z,57.5479
2023-04-03T19:05:47.375Z,57.6174
2023-04-03T19:06:48.259Z,57.7303
2023-04-03T19:07:49.052Z,57.8587
2023-04-03T19:08:49.941Z,57.9658
2023-04-03T19:09:50.782Z,58.0588
2023-04-03T19:10:51.751Z,58.1207
2023-04-03T19:11:53.627Z,58.1511
2023-04-03T19:12:54.435Z,58.1858
2023-04-03T19:14:10.657Z,58.2425
2023-04-03T19:14:56.789Z,58.2990
2023-04-03T19:15:57.733Z,58.3417
2023-04-03T19:16:58.732Z,58.3878
2023-04-03T19:17:59.911Z,58.4595
2023-04-03T19:19:00.803Z,58.5755
2023-04-03T19:20:01.676Z,58.6332
2023-04-03T19:21:02.615Z,58.6618
2023-04-03T19:22:03.632Z,58.6684
2023-04-03T19:23:04.517Z,58.6784
2023-04-03T19:24:05.418Z,58.6754
2023-04-03T19:25:06.232Z,58.6644
2023-04-03T19:26:07.051Z,58.6859
2023-04-03T19:27:07.927Z,58.6954
2023-04-03T19:28:08.781Z,58.6968
2023-04-03T19:29:09.628Z,58.7073
2023-04-03T19:30:10.468Z,58.7178
2023-04-03T19:31:11.341Z,58.7304
2023-04-03T19:32:13.716Z,58.7439
2023-04-03T19:33:12.576Z,58.7597
2023-04-03T19:34:13.450Z,58.7850
2023-04-03T19:35:14.357Z,58.8142
2023-04-03T19:36:15.570Z,58.8254
2023-04-03T19:37:16.414Z,58.8177
2023-04-03T19:38:17.382Z,58.8014
2023-04-03T19:39:18.298Z,58.7774
2023-04-03T19:40:19.136Z,58.7655
2023-04-03T19:41:19.976Z,58.7676
2023-04-03T19:42:20.836Z,58.7888
2023-04-03T19:43:21.620Z,58.7933
2023-04-03T19:44:22.489Z,58.7703
2023-04-03T19:45:23.617Z,58.7634
2023-04-03T19:46:24.510Z,58.7950
2023-04-03T19:47:25.440Z,58.8378
2023-04-03T19:48:26.277Z,58.8577
2023-04-03T19:49:27.106Z,58.9201
2023-04-03T19:50:27.949Z,58.9527
2023-04-03T19:51:28.861Z,58.9529
2023-04-03T19:52:29.715Z,58.9398
2023-04-03T19:53:30.608Z,58.9279
2023-04-03T19:54:31.431Z,58.9343
2023-04-03T19:55:32.345Z,58.9845
2023-04-03T19:56:33.186Z,58.9993
2023-04-03T19:57:35.072Z,58.9642
2023-04-03T19:58:36.068Z,58.9407
2023-04-03T19:59:36.899Z,58.8977
2023-04-03T20:00:37.923Z,58.7187
2023-04-03T20:01:38.872Z,58.4103
2023-04-03T20:02:39.879Z,58.3539
2023-04-03T20:03:40.881Z,58.3168
2023-04-03T20:04:41.820Z,58.2598
2023-04-03T20:05:42.669Z,58.2126
2023-04-03T20:06:43.606Z,58.1689
2023-04-03T20:07:44.446Z,58.1485
2023-04-03T20:08:45.354Z,58.1401
2023-04-03T20:09:46.281Z,58.1358
2023-04-03T20:10:47.172Z,58.1369
2023-04-03T20:11:48.101Z,58.1156
2023-04-03T20:12:49.096Z,58.0852
2023-04-03T20:13:49.985Z,58.0689
2023-04-03T20:14:50.813Z,58.0608
2023-04-03T20:15:51.697Z,58.0523
2023-04-03T20:16:52.871Z,58.0376
2023-04-03T20:17:53.795Z,58.0806
2023-04-03T20:18:54.636Z,58.1345
2023-04-03T20:19:55.468Z,58.1436
2023-04-03T20:20:56.414Z,58.1586
2023-04-03T20:21:57.295Z,58.1945
2023-04-03T20:22:58.194Z,58.2470
2023-04-03T20:23:59.047Z,58.3032
2023-04-03T20:25:06.045Z,58.3122
2023-04-03T20:26:11.845Z,58.2867
2023-04-03T20:27:02.394Z,58.2322
2023-04-03T20:28:03.371Z,58.1424
2023-04-03T20:29:04.340Z,58.0987
2023-04-03T20:30:05.237Z,58.1163
2023-04-03T20:31:06.122Z,58.1534
2023-04-03T20:32:07.782Z,58.1806
2023-04-03T20:33:08.655Z,58.1955
2023-04-03T20:34:09.519Z,58.2143
2023-04-03T20:35:10.405Z,58.2452
2023-04-03T20:36:11.508Z,58.2908
2023-04-03T20:37:12.716Z,58.3405
2023-04-03T20:38:13.615Z,58.4014
2023-04-03T20:39:14.532Z,58.4588
2023-04-03T20:40:15.554Z,58.5009
2023-04-03T20:41:16.537Z,58.5164
2023-04-03T20:42:17.451Z,58.5055
2023-04-03T20:43:18.345Z,58.4926
2023-04-03T20:44:19.422Z,58.4850
2023-04-03T20:45:20.285Z,58.4929
2023-04-03T20:46:21.221Z,58.5204
2023-04-03T20:47:22.097Z,58.5577
2023-04-03T20:48:23.182Z,58.6231
2023-04-03T20:49:24.029Z,58.6986
2023-04-03T20:50:24.906Z,58.7873
2023-04-03T20:51:25.820Z,58.9279
2023-04-03T20:52:26.733Z,59.0650
2023-04-03T20:53:27.697Z,59.1613
2023-04-03T20:54:28.512Z,59.2028
2023-04-03T20:55:29.433Z,59.2335
2023-04-03T20:56:30.335Z,59.2589
2023-04-03T20:57:31.248Z,59.2945
2023-04-03T20:58:32.236Z,59.3180
2023-04-03T20:59:33.264Z,59.3091
2023-04-03T21:00:34.126Z,59.3127
2023-04-03T21:01:35.158Z,59.3167
2023-04-03T21:02:36.464Z,59.3194
2023-04-03T21:03:37.428Z,59.3533
2023-04-03T21:04:38.619Z,59.3998
2023-04-03T21:05:39.459Z,59.4267
2023-04-03T21:06:41.366Z,59.4354
2023-04-03T21:07:42.246Z,59.4411
2023-04-03T21:08:43.207Z,59.4513
2023-04-03T21:09:44.121Z,59.4622
2023-04-03T21:10:45.062Z,59.5006
2023-04-03T21:11:45.908Z,59.5567
2023-04-03T21:12:46.857Z,59.6049
2023-04-03T21:13:47.810Z,59.6303
2023-04-03T21:14:48.738Z,59.6638
2023-04-03T21:15:49.757Z,59.7010
2023-04-03T21:16:50.752Z,59.7211
2023-04-03T21:17:51.720Z,59.7338
2023-04-03T21:18:52.660Z,59.7287
2023-04-03T21:19:53.604Z,59.7561
2023-04-03T21:20:54.554Z,59.8445
2023-04-03T21:21:55.528Z,59.9341
2023-04-03T21:22:56.459Z,60.0282
2023-04-03T21:23:57.388Z,60.0840
2023-04-03T21:24:58.414Z,60.1081
2023-04-03T21:25:59.288Z,60.1179
2023-04-03T21:27:00.269Z,60.1220
2023-04-03T21:28:01.485Z,60.1096
2023-04-03T21:29:02.343Z,60.0751
2023-04-03T21:30:03.191Z,60.0616
2023-04-03T21:31:04.091Z,60.0299
2023-04-03T21:32:04.963Z,60.0061
2023-04-03T21:33:05.900Z,59.9864
2023-04-03T21:34:06.914Z,59.9828
2023-04-03T21:35:07.799Z,59.9865
2023-04-03T21:36:08.748Z,59.9687
2023-04-03T21:37:09.698Z,59.9358
2023-04-03T21:38:10.692Z,59.8859
2023-04-03T21:39:11.585Z,59.8448
2023-04-03T21:40:12.508Z,59.8204
2023-04-03T21:41:13.431Z,59.8025
2023-04-03T21:42:14.352Z,59.7877
2023-04-03T21:43:15.289Z,59.7891
2023-04-03T21:44:16.213Z,59.8165
2023-04-03T21:45:17.097Z,59.8330
2023-04-03T21:46:18.247Z,59.8457
2023-04-03T21:47:19.175Z,59.8585
2023-04-03T21:48:20.185Z,59.8594
2023-04-03T21:49:21.081Z,59.8632
2023-04-03T21:50:22.013Z,59.8077
2023-04-03T21:51:22.941Z,59.7829
2023-04-03T21:52:23.817Z,59.7836
2023-04-03T21:53:24.707Z,59.8155
2023-04-03T21:54:25.630Z,59.8142
2023-04-03T21:55:26.515Z,59.7997
2023-04-03T21:56:27.609Z,59.7698
2023-04-03T21:57:28.479Z,59.8049
2023-04-03T21:58:29.469Z,59.8536
2023-04-03T21:59:30.650Z,59.8865
2023-04-03T22:00:31.768Z,59.8954
2023-04-03T22:01:33.108Z,59.8932
2023-04-03T22:02:34.063Z,59.9009
2023-04-03T22:03:34.946Z,59.9159
2023-04-03T22:04:35.811Z,59.9246
2023-04-03T22:05:37.886Z,59.9423
2023-04-03T22:06:38.780Z,59.9621
2023-04-03T22:07:39.651Z,59.9777
2023-04-03T22:08:40.569Z,59.9986
2023-04-03T22:09:41.488Z,60.0744
2023-04-03T22:10:42.496Z,60.1277
2023-04-03T22:11:43.429Z,60.1481
2023-04-03T22:12:44.325Z,60.1581
2023-04-03T22:13:45.223Z,60.1406
2023-04-03T22:14:46.129Z,60.1176
2023-04-03T22:15:47.050Z,60.0819
2023-04-03T22:16:48.089Z,60.0766
2023-04-03T22:17:48.971Z,60.1339
2023-04-03T22:18:50.024Z,60.1883
2023-04-03T22:19:50.889Z,60.2468
2023-04-03T22:20:51.895Z,60.3049
2023-04-03T22:21:52.783Z,60.3189
2023-04-03T22:22:53.797Z,60.3096
2023-04-03T22:23:54.833Z,60.3008
2023-04-03T22:24:55.758Z,60.3091
2023-04-03T22:25:56.732Z,60.3210
2023-04-03T22:26:57.688Z,60.3402
2023-04-03T22:27:58.566Z,60.3705
2023-04-03T22:28:59.482Z,60.3978
2023-04-03T22:30:00.456Z,60.4355
2023-04-03T22:31:01.361Z,60.4738
2023-04-03T22:32:02.281Z,60.5175
2023-04-03T22:33:03.277Z,60.5553
2023-04-03T22:34:04.246Z,60.5715
2023-04-03T22:35:05.231Z,60.5782
2023-04-03T22:36:06.180Z,60.5897
2023-04-03T22:37:07.021Z,60.5940
2023-04-03T22:38:08.214Z,60.5790
2023-04-03T22:39:09.176Z,60.5650
2023-04-03T22:40:10.097Z,60.5480
2023-04-03T22:41:11.002Z,60.5311
2023-04-03T22:42:11.882Z,60.5068
2023-04-03T22:43:12.909Z,60.4984
2023-04-03T22:44:13.805Z,60.4939
2023-04-03T22:45:14.745Z,60.4853
2023-04-03T22:46:15.637Z,60.4642
2023-04-03T22:47:16.609Z,60.4786
2023-04-03T22:48:17.626Z,60.4958
2023-04-03T22:49:18.490Z,60.4862
2023-04-03T22:50:19.424Z,60.4740
2023-04-03T22:51:20.416Z,60.4579
2023-04-03T22:52:21.354Z,60.4642
2023-04-03T22:53:22.324Z,60.4856
2023-04-03T22:54:23.338Z,60.5113
2023-04-03T22:55:24.256Z,60.5341
2023-04-03T22:56:26.182Z,60.5582
2023-04-03T22:57:25.244Z,60.5633
2023-04-03T22:58:26.276Z,60.5646
2023-04-03T22:59:28.254Z,60.5766
2023-04-03T23:00:29.164Z,60.5953
2023-04-03T23:01:30.239Z,60.6039
2023-04-03T23:02:31.215Z,60.6130
2023-04-03T23:03:32.098Z,60.6181
2023-04-03T23:04:33.015Z,60.6175
2023-04-03T23:05:34.027Z,60.5942
2023-04-03T23:06:35.135Z,60.5083
2023-04-03T23:07:36.012Z,60.4452
2023-04-03T23:08:36.897Z,60.4281
2023-04-03T23:09:37.945Z,60.4885
2023-04-03T23:10:38.879Z,60.5303
2023-04-03T23:11:40.372Z,60.5490
2023-04-03T23:12:41.246Z,60.5468
2023-04-03T23:13:42.189Z,60.5652
2023-04-03T23:14:43.075Z,60.6009
2023-04-03T23:15:43.970Z,60.6542
2023-04-03T23:16:44.892Z,60.6934
2023-04-03T23:17:45.793Z,60.6902
2023-04-03T23:18:46.760Z,60.6595
2023-04-03T23:19:47.632Z,60.6493
2023-04-03T23:20:48.563Z,60.6499
2023-04-03T23:21:49.477Z,60.6721
2023-04-03T23:22:50.430Z,60.7034
2023-04-03T23:23:51.398Z,60.7108
2023-04-03T23:24:52.322Z,60.7011
2023-04-03T23:25:53.185Z,60.6993
2023-04-03T23:26:54.170Z,60.7537
2023-04-03T23:27:55.087Z,60.8064
2023-04-03T23:28:55.951Z,60.8312
2023-04-03T23:29:56.872Z,60.8579
2023-04-03T23:30:57.796Z,60.8870
2023-04-03T23:31:58.762Z,60.9021
2023-04-03T23:32:59.710Z,60.9346
2023-04-03T23:34:00.715Z,60.9850
2023-04-03T23:35:01.609Z,61.0218
2023-04-03T23:36:02.544Z,61.0841
2023-04-03T23:37:03.565Z,61.1226